sensor_id;sensor_type;location;lat;lon;timestamp;P1;durP1;ratioP1;P2;durP2;ratioP2
81320;SDS011;70785;52.570;5.638;2024-02-28T00:01:18;44.72;;;16.88;;
81320;SDS011;70785;52.570;5.638;2024-02-28T00:03:44;49.72;;;16.60;;
81320;SDS011;70785;52.570;5.638;2024-02-28T00:06:10;46.67;;;15.85;;
81320;SDS011;70785;52.570;5.638;2024-02-28T00:08:37;51.97;;;18.45;;
81320;SDS011;70785;52.570;5.638;2024-02-28T00:11:03;43.85;;;17.23;;
81320;SDS011;70785;52.570;5.638;2024-02-28T00:13:29;44.83;;;15.88;;
81320;SDS011;70785;52.570;5.638;2024-02-28T00:15:55;47.40;;;16.20;;
81320;SDS011;70785;52.570;5.638;2024-02-28T00:18:21;42.35;;;15.57;;
81320;SDS011;70785;52.570;5.638;2024-02-28T00:20:47;43.25;;;15.40;;
81320;SDS011;70785;52.570;5.638;2024-02-28T00:23:13;45.55;;;16.60;;
81320;SDS011;70785;52.570;5.638;2024-02-28T00:25:39;41.85;;;16.45;;
81320;SDS011;70785;52.570;5.638;2024-02-28T00:28:06;39.53;;;15.98;;
81320;SDS011;70785;52.570;5.638;2024-02-28T00:30:32;44.88;;;16.98;;
81320;SDS011;70785;52.570;5.638;2024-02-28T00:32:59;44.95;;;16.20;;
81320;SDS011;70785;52.570;5.638;2024-02-28T00:35:25;41.90;;;15.88;;
81320;SDS011;70785;52.570;5.638;2024-02-28T00:37:51;48.97;;;16.60;;
81320;SDS011;70785;52.570;5.638;2024-02-28T00:40:17;49.30;;;17.05;;
81320;SDS011;70785;52.570;5.638;2024-02-28T00:42:43;47.35;;;16.70;;
81320;SDS011;70785;52.570;5.638;2024-02-28T00:45:11;45.47;;;16.27;;
81320;SDS011;70785;52.570;5.638;2024-02-28T00:47:37;44.80;;;17.63;;
81320;SDS011;70785;52.570;5.638;2024-02-28T00:50:04;45.28;;;16.77;;
81320;SDS011;70785;52.570;5.638;2024-02-28T00:52:30;47.58;;;16.65;;
81320;SDS011;70785;52.570;5.638;2024-02-28T00:54:57;43.55;;;15.82;;
81320;SDS011;70785;52.570;5.638;2024-02-28T00:57:24;43.60;;;15.68;;
81320;SDS011;70785;52.570;5.638;2024-02-28T00:59:50;50.38;;;16.95;;
81320;SDS011;70785;52.570;5.638;2024-02-28T01:02:16;49.03;;;18.17;;
81320;SDS011;70785;52.570;5.638;2024-02-28T01:04:42;49.55;;;17.38;;
81320;SDS011;70785;52.570;5.638;2024-02-28T01:07:08;54.85;;;19.23;;
81320;SDS011;70785;52.570;5.638;2024-02-28T01:09:35;48.42;;;18.88;;
81320;SDS011;70785;52.570;5.638;2024-02-28T01:12:01;51.63;;;18.48;;
81320;SDS011;70785;52.570;5.638;2024-02-28T01:14:27;55.35;;;19.08;;
81320;SDS011;70785;52.570;5.638;2024-02-28T01:16:53;52.58;;;17.55;;
81320;SDS011;70785;52.570;5.638;2024-02-28T01:19:19;51.67;;;19.17;;
81320;SDS011;70785;52.570;5.638;2024-02-28T01:21:45;56.58;;;18.17;;
81320;SDS011;70785;52.570;5.638;2024-02-28T01:24:11;57.08;;;18.38;;
81320;SDS011;70785;52.570;5.638;2024-02-28T01:26:37;51.28;;;17.38;;
81320;SDS011;70785;52.570;5.638;2024-02-28T01:29:03;52.22;;;16.75;;
81320;SDS011;70785;52.570;5.638;2024-02-28T01:31:30;56.40;;;17.88;;
81320;SDS011;70785;52.570;5.638;2024-02-28T01:33:56;57.78;;;18.92;;
81320;SDS011;70785;52.570;5.638;2024-02-28T01:36:23;64.57;;;19.40;;
81320;SDS011;70785;52.570;5.638;2024-02-28T01:38:49;56.55;;;18.80;;
81320;SDS011;70785;52.570;5.638;2024-02-28T01:41:15;55.33;;;18.75;;
81320;SDS011;70785;52.570;5.638;2024-02-28T01:43:41;57.05;;;18.90;;
81320;SDS011;70785;52.570;5.638;2024-02-28T01:46:16;49.17;;;18.23;;
81320;SDS011;70785;52.570;5.638;2024-02-28T01:48:48;60.08;;;18.05;;
81320;SDS011;70785;52.570;5.638;2024-02-28T01:51:14;57.83;;;19.52;;
81320;SDS011;70785;52.570;5.638;2024-02-28T01:53:41;56.20;;;17.60;;
81320;SDS011;70785;52.570;5.638;2024-02-28T01:56:07;60.97;;;19.10;;
81320;SDS011;70785;52.570;5.638;2024-02-28T01:58:34;60.13;;;19.65;;
81320;SDS011;70785;52.570;5.638;2024-02-28T02:01:00;61.17;;;19.40;;
81320;SDS011;70785;52.570;5.638;2024-02-28T02:03:28;61.72;;;18.42;;
81320;SDS011;70785;52.570;5.638;2024-02-28T02:05:55;56.78;;;19.05;;
81320;SDS011;70785;52.570;5.638;2024-02-28T02:08:21;63.83;;;19.23;;
81320;SDS011;70785;52.570;5.638;2024-02-28T02:10:48;56.35;;;19.42;;
81320;SDS011;70785;52.570;5.638;2024-02-28T02:13:15;54.00;;;19.45;;
81320;SDS011;70785;52.570;5.638;2024-02-28T02:15:41;52.30;;;17.27;;
81320;SDS011;70785;52.570;5.638;2024-02-28T02:18:07;50.53;;;18.50;;
81320;SDS011;70785;52.570;5.638;2024-02-28T02:20:33;50.58;;;17.55;;
81320;SDS011;70785;52.570;5.638;2024-02-28T02:23:04;44.65;;;15.88;;
81320;SDS011;70785;52.570;5.638;2024-02-28T02:25:30;51.50;;;17.40;;
81320;SDS011;70785;52.570;5.638;2024-02-28T02:27:57;45.47;;;15.63;;
81320;SDS011;70785;52.570;5.638;2024-02-28T02:30:23;55.20;;;18.38;;
81320;SDS011;70785;52.570;5.638;2024-02-28T02:32:49;52.35;;;18.23;;
81320;SDS011;70785;52.570;5.638;2024-02-28T02:35:15;56.88;;;18.85;;
81320;SDS011;70785;52.570;5.638;2024-02-28T02:37:44;53.28;;;17.85;;
81320;SDS011;70785;52.570;5.638;2024-02-28T02:40:14;59.13;;;18.17;;
81320;SDS011;70785;52.570;5.638;2024-02-28T02:42:40;62.60;;;18.40;;
81320;SDS011;70785;52.570;5.638;2024-02-28T02:45:06;61.67;;;17.88;;
81320;SDS011;70785;52.570;5.638;2024-02-28T02:47:33;42.63;;;16.95;;
81320;SDS011;70785;52.570;5.638;2024-02-28T02:49:59;50.50;;;17.40;;
81320;SDS011;70785;52.570;5.638;2024-02-28T02:52:25;55.13;;;17.45;;
81320;SDS011;70785;52.570;5.638;2024-02-28T02:54:51;68.93;;;19.52;;
81320;SDS011;70785;52.570;5.638;2024-02-28T02:57:17;61.42;;;18.55;;
81320;SDS011;70785;52.570;5.638;2024-02-28T02:59:43;54.13;;;17.85;;
81320;SDS011;70785;52.570;5.638;2024-02-28T03:02:10;48.63;;;17.40;;
81320;SDS011;70785;52.570;5.638;2024-02-28T03:04:36;57.40;;;18.98;;
81320;SDS011;70785;52.570;5.638;2024-02-28T03:07:02;51.38;;;17.88;;
81320;SDS011;70785;52.570;5.638;2024-02-28T03:09:28;48.92;;;15.90;;
81320;SDS011;70785;52.570;5.638;2024-02-28T03:11:54;45.40;;;16.30;;
81320;SDS011;70785;52.570;5.638;2024-02-28T03:14:20;44.53;;;15.25;;
81320;SDS011;70785;52.570;5.638;2024-02-28T03:16:47;40.97;;;17.55;;
81320;SDS011;70785;52.570;5.638;2024-02-28T03:19:14;41.33;;;16.08;;
81320;SDS011;70785;52.570;5.638;2024-02-28T03:21:40;39.05;;;15.80;;
81320;SDS011;70785;52.570;5.638;2024-02-28T03:24:06;40.42;;;15.50;;
81320;SDS011;70785;52.570;5.638;2024-02-28T03:26:33;41.63;;;16.30;;
81320;SDS011;70785;52.570;5.638;2024-02-28T03:28:59;44.13;;;15.82;;
81320;SDS011;70785;52.570;5.638;2024-02-28T03:31:25;41.05;;;15.45;;
81320;SDS011;70785;52.570;5.638;2024-02-28T03:33:52;45.70;;;15.98;;
81320;SDS011;70785;52.570;5.638;2024-02-28T03:36:18;44.17;;;15.73;;
81320;SDS011;70785;52.570;5.638;2024-02-28T03:38:44;41.17;;;15.88;;
81320;SDS011;70785;52.570;5.638;2024-02-28T03:41:11;43.80;;;15.23;;
81320;SDS011;70785;52.570;5.638;2024-02-28T03:43:37;40.50;;;15.77;;
81320;SDS011;70785;52.570;5.638;2024-02-28T03:46:03;40.33;;;14.80;;
81320;SDS011;70785;52.570;5.638;2024-02-28T03:48:29;40.25;;;16.40;;
81320;SDS011;70785;52.570;5.638;2024-02-28T03:50:56;37.92;;;15.02;;
81320;SDS011;70785;52.570;5.638;2024-02-28T03:53:22;40.47;;;16.55;;
81320;SDS011;70785;52.570;5.638;2024-02-28T03:55:50;38.92;;;15.63;;
81320;SDS011;70785;52.570;5.638;2024-02-28T03:58:16;34.80;;;15.32;;
81320;SDS011;70785;52.570;5.638;2024-02-28T04:00:42;36.38;;;14.25;;
81320;SDS011;70785;52.570;5.638;2024-02-28T04:03:11;32.78;;;13.82;;
81320;SDS011;70785;52.570;5.638;2024-02-28T04:05:39;33.15;;;13.32;;
81320;SDS011;70785;52.570;5.638;2024-02-28T04:08:06;35.47;;;15.85;;
81320;SDS011;70785;52.570;5.638;2024-02-28T04:10:32;34.05;;;13.75;;
81320;SDS011;70785;52.570;5.638;2024-02-28T04:12:58;42.40;;;14.43;;
81320;SDS011;70785;52.570;5.638;2024-02-28T04:15:24;32.63;;;12.23;;
81320;SDS011;70785;52.570;5.638;2024-02-28T04:17:51;32.42;;;13.43;;
81320;SDS011;70785;52.570;5.638;2024-02-28T04:20:17;33.40;;;13.05;;
81320;SDS011;70785;52.570;5.638;2024-02-28T04:22:44;34.22;;;13.98;;
81320;SDS011;70785;52.570;5.638;2024-02-28T04:25:10;34.33;;;13.35;;
81320;SDS011;70785;52.570;5.638;2024-02-28T04:27:36;35.13;;;15.13;;
81320;SDS011;70785;52.570;5.638;2024-02-28T04:30:03;33.67;;;14.40;;
81320;SDS011;70785;52.570;5.638;2024-02-28T04:32:30;36.47;;;14.75;;
81320;SDS011;70785;52.570;5.638;2024-02-28T04:34:56;36.55;;;14.10;;
81320;SDS011;70785;52.570;5.638;2024-02-28T04:37:23;30.08;;;13.02;;
81320;SDS011;70785;52.570;5.638;2024-02-28T04:39:49;30.27;;;14.40;;
81320;SDS011;70785;52.570;5.638;2024-02-28T04:42:16;33.28;;;13.13;;
81320;SDS011;70785;52.570;5.638;2024-02-28T04:44:42;31.35;;;12.85;;
81320;SDS011;70785;52.570;5.638;2024-02-28T04:47:08;31.10;;;13.63;;
81320;SDS011;70785;52.570;5.638;2024-02-28T04:49:37;32.97;;;15.52;;
81320;SDS011;70785;52.570;5.638;2024-02-28T04:52:06;34.00;;;15.45;;
81320;SDS011;70785;52.570;5.638;2024-02-28T04:54:33;35.10;;;14.68;;
81320;SDS011;70785;52.570;5.638;2024-02-28T04:56:59;32.20;;;13.30;;
81320;SDS011;70785;52.570;5.638;2024-02-28T04:59:25;31.05;;;12.88;;
81320;SDS011;70785;52.570;5.638;2024-02-28T05:01:51;37.40;;;13.85;;
81320;SDS011;70785;52.570;5.638;2024-02-28T05:04:18;31.42;;;13.93;;
81320;SDS011;70785;52.570;5.638;2024-02-28T05:06:44;28.25;;;12.95;;
81320;SDS011;70785;52.570;5.638;2024-02-28T05:09:11;31.50;;;12.60;;
81320;SDS011;70785;52.570;5.638;2024-02-28T05:11:37;28.98;;;13.60;;
81320;SDS011;70785;52.570;5.638;2024-02-28T05:14:03;26.00;;;11.23;;
81320;SDS011;70785;52.570;5.638;2024-02-28T05:16:29;32.75;;;13.80;;
81320;SDS011;70785;52.570;5.638;2024-02-28T05:18:55;28.40;;;12.82;;
81320;SDS011;70785;52.570;5.638;2024-02-28T05:21:21;29.23;;;13.75;;
81320;SDS011;70785;52.570;5.638;2024-02-28T05:23:48;27.17;;;13.00;;
81320;SDS011;70785;52.570;5.638;2024-02-28T05:26:14;27.48;;;12.80;;
81320;SDS011;70785;52.570;5.638;2024-02-28T05:28:40;28.92;;;13.55;;
81320;SDS011;70785;52.570;5.638;2024-02-28T05:31:20;25.73;;;12.52;;
81320;SDS011;70785;52.570;5.638;2024-02-28T05:33:46;27.52;;;11.68;;
81320;SDS011;70785;52.570;5.638;2024-02-28T05:36:12;24.05;;;11.65;;
81320;SDS011;70785;52.570;5.638;2024-02-28T05:38:38;24.58;;;13.27;;
81320;SDS011;70785;52.570;5.638;2024-02-28T05:41:05;24.83;;;12.18;;
81320;SDS011;70785;52.570;5.638;2024-02-28T05:43:31;26.13;;;13.05;;
81320;SDS011;70785;52.570;5.638;2024-02-28T05:45:57;26.20;;;12.48;;
81320;SDS011;70785;52.570;5.638;2024-02-28T05:48:23;28.40;;;12.73;;
81320;SDS011;70785;52.570;5.638;2024-02-28T05:50:49;25.88;;;12.90;;
81320;SDS011;70785;52.570;5.638;2024-02-28T05:53:15;28.55;;;12.35;;
81320;SDS011;70785;52.570;5.638;2024-02-28T05:55:41;28.88;;;12.50;;
81320;SDS011;70785;52.570;5.638;2024-02-28T05:58:07;22.25;;;11.05;;
81320;SDS011;70785;52.570;5.638;2024-02-28T06:00:34;22.85;;;11.43;;
81320;SDS011;70785;52.570;5.638;2024-02-28T06:03:00;26.80;;;13.45;;
81320;SDS011;70785;52.570;5.638;2024-02-28T06:05:26;24.88;;;12.30;;
81320;SDS011;70785;52.570;5.638;2024-02-28T06:07:52;28.60;;;12.30;;
81320;SDS011;70785;52.570;5.638;2024-02-28T06:10:18;28.05;;;12.65;;
81320;SDS011;70785;52.570;5.638;2024-02-28T06:12:46;26.63;;;11.98;;
81320;SDS011;70785;52.570;5.638;2024-02-28T06:15:12;22.75;;;12.18;;
81320;SDS011;70785;52.570;5.638;2024-02-28T06:17:39;27.15;;;11.90;;
81320;SDS011;70785;52.570;5.638;2024-02-28T06:20:05;25.23;;;12.65;;
81320;SDS011;70785;52.570;5.638;2024-02-28T06:22:31;25.67;;;12.68;;
81320;SDS011;70785;52.570;5.638;2024-02-28T06:24:58;25.50;;;11.93;;
81320;SDS011;70785;52.570;5.638;2024-02-28T06:27:24;21.00;;;10.93;;
81320;SDS011;70785;52.570;5.638;2024-02-28T06:29:52;23.08;;;12.30;;
81320;SDS011;70785;52.570;5.638;2024-02-28T06:32:18;24.40;;;12.27;;
81320;SDS011;70785;52.570;5.638;2024-02-28T06:34:44;26.10;;;12.05;;
81320;SDS011;70785;52.570;5.638;2024-02-28T06:37:10;23.27;;;12.23;;
81320;SDS011;70785;52.570;5.638;2024-02-28T06:39:37;25.75;;;11.75;;
81320;SDS011;70785;52.570;5.638;2024-02-28T06:42:03;25.95;;;13.40;;
81320;SDS011;70785;52.570;5.638;2024-02-28T06:44:29;28.13;;;12.15;;
81320;SDS011;70785;52.570;5.638;2024-02-28T06:46:55;26.00;;;13.15;;
81320;SDS011;70785;52.570;5.638;2024-02-28T06:49:21;22.88;;;12.43;;
81320;SDS011;70785;52.570;5.638;2024-02-28T06:51:48;23.17;;;10.90;;
81320;SDS011;70785;52.570;5.638;2024-02-28T06:54:14;23.92;;;13.07;;
81320;SDS011;70785;52.570;5.638;2024-02-28T06:56:40;26.45;;;12.82;;
81320;SDS011;70785;52.570;5.638;2024-02-28T06:59:06;24.60;;;12.05;;
81320;SDS011;70785;52.570;5.638;2024-02-28T07:01:32;25.52;;;12.20;;
81320;SDS011;70785;52.570;5.638;2024-02-28T07:03:59;24.17;;;11.23;;
81320;SDS011;70785;52.570;5.638;2024-02-28T07:06:25;23.90;;;11.88;;
81320;SDS011;70785;52.570;5.638;2024-02-28T07:08:51;25.65;;;12.40;;
81320;SDS011;70785;52.570;5.638;2024-02-28T07:11:17;23.15;;;11.90;;
81320;SDS011;70785;52.570;5.638;2024-02-28T07:13:43;24.23;;;11.40;;
81320;SDS011;70785;52.570;5.638;2024-02-28T07:16:09;22.38;;;11.75;;
81320;SDS011;70785;52.570;5.638;2024-02-28T07:18:35;20.73;;;12.02;;
81320;SDS011;70785;52.570;5.638;2024-02-28T07:21:01;24.58;;;12.73;;
81320;SDS011;70785;52.570;5.638;2024-02-28T07:23:27;25.40;;;12.95;;
81320;SDS011;70785;52.570;5.638;2024-02-28T07:25:53;27.27;;;14.40;;
81320;SDS011;70785;52.570;5.638;2024-02-28T07:28:20;23.42;;;11.30;;
81320;SDS011;70785;52.570;5.638;2024-02-28T07:30:46;23.80;;;11.80;;
81320;SDS011;70785;52.570;5.638;2024-02-28T07:33:13;24.63;;;11.85;;
81320;SDS011;70785;52.570;5.638;2024-02-28T07:35:45;22.42;;;11.35;;
81320;SDS011;70785;52.570;5.638;2024-02-28T07:38:12;21.55;;;11.68;;
81320;SDS011;70785;52.570;5.638;2024-02-28T07:40:38;20.42;;;11.27;;
81320;SDS011;70785;52.570;5.638;2024-02-28T07:43:05;25.10;;;11.65;;
81320;SDS011;70785;52.570;5.638;2024-02-28T07:45:31;27.10;;;12.52;;
81320;SDS011;70785;52.570;5.638;2024-02-28T07:47:57;21.40;;;11.52;;
81320;SDS011;70785;52.570;5.638;2024-02-28T07:50:23;23.27;;;11.85;;
81320;SDS011;70785;52.570;5.638;2024-02-28T07:52:50;24.30;;;12.63;;
81320;SDS011;70785;52.570;5.638;2024-02-28T07:55:16;21.58;;;11.63;;
81320;SDS011;70785;52.570;5.638;2024-02-28T07:57:43;21.38;;;12.40;;
81320;SDS011;70785;52.570;5.638;2024-02-28T08:00:12;26.02;;;13.63;;
81320;SDS011;70785;52.570;5.638;2024-02-28T08:02:38;27.20;;;12.80;;
81320;SDS011;70785;52.570;5.638;2024-02-28T08:05:05;22.02;;;11.30;;
81320;SDS011;70785;52.570;5.638;2024-02-28T08:07:33;26.73;;;13.02;;
81320;SDS011;70785;52.570;5.638;2024-02-28T08:09:59;25.42;;;11.80;;
81320;SDS011;70785;52.570;5.638;2024-02-28T08:12:25;26.33;;;12.40;;
81320;SDS011;70785;52.570;5.638;2024-02-28T08:14:51;26.58;;;13.65;;
81320;SDS011;70785;52.570;5.638;2024-02-28T08:17:17;25.88;;;12.48;;
81320;SDS011;70785;52.570;5.638;2024-02-28T08:19:43;24.88;;;13.18;;
81320;SDS011;70785;52.570;5.638;2024-02-28T08:22:09;26.10;;;13.57;;
81320;SDS011;70785;52.570;5.638;2024-02-28T08:24:37;24.33;;;12.52;;
81320;SDS011;70785;52.570;5.638;2024-02-28T08:27:03;24.50;;;13.38;;
81320;SDS011;70785;52.570;5.638;2024-02-28T08:29:29;23.50;;;12.93;;
81320;SDS011;70785;52.570;5.638;2024-02-28T08:31:55;26.05;;;13.57;;
81320;SDS011;70785;52.570;5.638;2024-02-28T08:34:21;28.42;;;14.02;;
81320;SDS011;70785;52.570;5.638;2024-02-28T08:36:47;29.27;;;14.15;;
81320;SDS011;70785;52.570;5.638;2024-02-28T08:39:13;28.73;;;14.75;;
81320;SDS011;70785;52.570;5.638;2024-02-28T08:41:40;30.20;;;13.75;;
81320;SDS011;70785;52.570;5.638;2024-02-28T08:44:06;23.35;;;12.65;;
81320;SDS011;70785;52.570;5.638;2024-02-28T08:46:32;26.92;;;13.98;;
81320;SDS011;70785;52.570;5.638;2024-02-28T08:48:58;29.40;;;14.85;;
81320;SDS011;70785;52.570;5.638;2024-02-28T08:51:24;26.80;;;13.65;;
81320;SDS011;70785;52.570;5.638;2024-02-28T08:53:50;26.40;;;14.93;;
81320;SDS011;70785;52.570;5.638;2024-02-28T08:56:18;24.95;;;13.70;;
81320;SDS011;70785;52.570;5.638;2024-02-28T08:58:44;28.73;;;14.80;;
81320;SDS011;70785;52.570;5.638;2024-02-28T09:01:14;26.65;;;13.07;;
81320;SDS011;70785;52.570;5.638;2024-02-28T09:03:43;24.15;;;12.48;;
81320;SDS011;70785;52.570;5.638;2024-02-28T09:06:09;26.60;;;13.98;;
81320;SDS011;70785;52.570;5.638;2024-02-28T09:08:35;26.05;;;13.52;;
81320;SDS011;70785;52.570;5.638;2024-02-28T09:11:01;26.08;;;14.65;;
81320;SDS011;70785;52.570;5.638;2024-02-28T09:13:28;26.40;;;14.55;;
81320;SDS011;70785;52.570;5.638;2024-02-28T09:15:55;26.60;;;14.60;;
81320;SDS011;70785;52.570;5.638;2024-02-28T09:18:22;25.67;;;13.48;;
81320;SDS011;70785;52.570;5.638;2024-02-28T09:20:48;25.42;;;13.90;;
81320;SDS011;70785;52.570;5.638;2024-02-28T09:23:15;24.70;;;13.40;;
81320;SDS011;70785;52.570;5.638;2024-02-28T09:25:41;24.77;;;13.70;;
81320;SDS011;70785;52.570;5.638;2024-02-28T09:28:07;25.60;;;13.88;;
81320;SDS011;70785;52.570;5.638;2024-02-28T09:30:34;23.08;;;13.75;;
81320;SDS011;70785;52.570;5.638;2024-02-28T09:33:00;26.60;;;14.25;;
81320;SDS011;70785;52.570;5.638;2024-02-28T09:35:26;24.27;;;14.15;;
81320;SDS011;70785;52.570;5.638;2024-02-28T09:37:52;27.65;;;14.48;;
81320;SDS011;70785;52.570;5.638;2024-02-28T09:40:18;25.45;;;14.32;;
81320;SDS011;70785;52.570;5.638;2024-02-28T09:42:56;27.77;;;13.85;;
81320;SDS011;70785;52.570;5.638;2024-02-28T09:45:30;29.30;;;15.20;;
81320;SDS011;70785;52.570;5.638;2024-02-28T09:47:58;24.80;;;13.38;;
81320;SDS011;70785;52.570;5.638;2024-02-28T09:50:26;24.77;;;14.13;;
81320;SDS011;70785;52.570;5.638;2024-02-28T09:52:53;23.33;;;12.88;;
81320;SDS011;70785;52.570;5.638;2024-02-28T09:55:19;21.58;;;14.15;;
81320;SDS011;70785;52.570;5.638;2024-02-28T09:57:47;24.50;;;13.95;;
81320;SDS011;70785;52.570;5.638;2024-02-28T10:00:14;23.10;;;12.70;;
81320;SDS011;70785;52.570;5.638;2024-02-28T10:02:44;24.50;;;13.98;;
81320;SDS011;70785;52.570;5.638;2024-02-28T10:05:12;22.27;;;13.27;;
81320;SDS011;70785;52.570;5.638;2024-02-28T10:07:39;27.92;;;13.65;;
81320;SDS011;70785;52.570;5.638;2024-02-28T10:10:05;23.92;;;13.80;;
81320;SDS011;70785;52.570;5.638;2024-02-28T10:12:33;23.65;;;13.75;;
81320;SDS011;70785;52.570;5.638;2024-02-28T10:15:00;25.98;;;13.73;;
81320;SDS011;70785;52.570;5.638;2024-02-28T10:17:26;23.83;;;13.88;;
81320;SDS011;70785;52.570;5.638;2024-02-28T10:19:52;20.17;;;13.02;;
81320;SDS011;70785;52.570;5.638;2024-02-28T10:22:19;23.02;;;13.93;;
81320;SDS011;70785;52.570;5.638;2024-02-28T10:24:45;23.13;;;14.13;;
81320;SDS011;70785;52.570;5.638;2024-02-28T10:27:15;20.90;;;13.85;;
81320;SDS011;70785;52.570;5.638;2024-02-28T10:29:41;22.05;;;14.18;;
81320;SDS011;70785;52.570;5.638;2024-02-28T10:32:09;22.98;;;13.40;;
81320;SDS011;70785;52.570;5.638;2024-02-28T10:34:36;22.65;;;13.60;;
81320;SDS011;70785;52.570;5.638;2024-02-28T10:37:03;25.23;;;14.68;;
81320;SDS011;70785;52.570;5.638;2024-02-28T10:39:30;21.60;;;13.50;;
81320;SDS011;70785;52.570;5.638;2024-02-28T10:41:58;20.83;;;14.40;;
81320;SDS011;70785;52.570;5.638;2024-02-28T10:44:27;20.33;;;13.80;;
81320;SDS011;70785;52.570;5.638;2024-02-28T10:46:53;21.60;;;13.38;;
81320;SDS011;70785;52.570;5.638;2024-02-28T10:49:20;26.63;;;13.35;;
81320;SDS011;70785;52.570;5.638;2024-02-28T10:51:48;20.55;;;12.93;;
81320;SDS011;70785;52.570;5.638;2024-02-28T10:54:16;20.83;;;14.18;;
81320;SDS011;70785;52.570;5.638;2024-02-28T10:56:46;21.17;;;13.73;;
81320;SDS011;70785;52.570;5.638;2024-02-28T10:59:12;21.10;;;12.93;;
81320;SDS011;70785;52.570;5.638;2024-02-28T11:01:42;23.35;;;14.50;;
81320;SDS011;70785;52.570;5.638;2024-02-28T11:04:10;20.05;;;12.73;;
81320;SDS011;70785;52.570;5.638;2024-02-28T11:06:47;18.90;;;13.40;;
81320;SDS011;70785;52.570;5.638;2024-02-28T11:09:24;19.35;;;13.63;;
81320;SDS011;70785;52.570;5.638;2024-02-28T11:11:53;19.13;;;12.60;;
81320;SDS011;70785;52.570;5.638;2024-02-28T11:14:21;20.60;;;13.80;;
81320;SDS011;70785;52.570;5.638;2024-02-28T11:17:00;19.65;;;12.80;;
81320;SDS011;70785;52.570;5.638;2024-02-28T11:19:30;20.17;;;13.38;;
81320;SDS011;70785;52.570;5.638;2024-02-28T11:21:58;20.40;;;12.57;;
81320;SDS011;70785;52.570;5.638;2024-02-28T11:24:29;22.50;;;14.05;;
81320;SDS011;70785;52.570;5.638;2024-02-28T11:26:56;22.45;;;14.32;;
81320;SDS011;70785;52.570;5.638;2024-02-28T11:29:26;25.38;;;14.38;;
81320;SDS011;70785;52.570;5.638;2024-02-28T11:31:56;20.95;;;13.55;;
81320;SDS011;70785;52.570;5.638;2024-02-28T11:34:23;19.73;;;13.98;;
81320;SDS011;70785;52.570;5.638;2024-02-28T11:36:49;22.10;;;14.02;;
81320;SDS011;70785;52.570;5.638;2024-02-28T11:39:16;22.38;;;15.02;;
81320;SDS011;70785;52.570;5.638;2024-02-28T11:41:43;21.08;;;14.10;;
81320;SDS011;70785;52.570;5.638;2024-02-28T11:44:13;21.98;;;14.85;;
81320;SDS011;70785;52.570;5.638;2024-02-28T11:46:49;21.90;;;13.50;;
81320;SDS011;70785;52.570;5.638;2024-02-28T11:49:16;18.35;;;13.48;;
81320;SDS011;70785;52.570;5.638;2024-02-28T11:51:43;19.55;;;13.23;;
81320;SDS011;70785;52.570;5.638;2024-02-28T11:54:10;19.65;;;12.75;;
81320;SDS011;70785;52.570;5.638;2024-02-28T11:56:37;22.88;;;13.27;;
81320;SDS011;70785;52.570;5.638;2024-02-28T11:59:04;22.08;;;13.48;;
81320;SDS011;70785;52.570;5.638;2024-02-28T12:01:34;20.15;;;14.07;;
81320;SDS011;70785;52.570;5.638;2024-02-28T12:04:10;22.40;;;14.05;;
81320;SDS011;70785;52.570;5.638;2024-02-28T12:06:36;22.30;;;14.27;;
81320;SDS011;70785;52.570;5.638;2024-02-28T12:09:03;22.30;;;13.93;;
81320;SDS011;70785;52.570;5.638;2024-02-28T12:11:31;23.77;;;14.35;;
81320;SDS011;70785;52.570;5.638;2024-02-28T12:13:57;21.33;;;14.10;;
81320;SDS011;70785;52.570;5.638;2024-02-28T12:16:25;23.95;;;15.00;;
81320;SDS011;70785;52.570;5.638;2024-02-28T12:18:51;19.63;;;14.18;;
81320;SDS011;70785;52.570;5.638;2024-02-28T12:21:18;24.00;;;14.63;;
81320;SDS011;70785;52.570;5.638;2024-02-28T12:23:45;21.25;;;14.75;;
81320;SDS011;70785;52.570;5.638;2024-02-28T12:26:14;24.50;;;14.95;;
81320;SDS011;70785;52.570;5.638;2024-02-28T12:28:42;21.08;;;13.55;;
81320;SDS011;70785;52.570;5.638;2024-02-28T12:31:08;24.10;;;14.75;;
81320;SDS011;70785;52.570;5.638;2024-02-28T12:33:37;20.45;;;13.80;;
81320;SDS011;70785;52.570;5.638;2024-02-28T12:36:03;21.88;;;13.48;;
81320;SDS011;70785;52.570;5.638;2024-02-28T12:38:30;20.50;;;12.48;;
81320;SDS011;70785;52.570;5.638;2024-02-28T12:40:56;19.70;;;12.30;;
81320;SDS011;70785;52.570;5.638;2024-02-28T12:43:23;18.85;;;11.50;;
81320;SDS011;70785;52.570;5.638;2024-02-28T12:45:50;17.42;;;11.70;;
81320;SDS011;70785;52.570;5.638;2024-02-28T12:48:16;18.35;;;10.55;;
81320;SDS011;70785;52.570;5.638;2024-02-28T12:50:43;20.27;;;13.20;;
81320;SDS011;70785;52.570;5.638;2024-02-28T12:53:09;21.88;;;13.77;;
81320;SDS011;70785;52.570;5.638;2024-02-28T12:55:35;22.42;;;13.57;;
81320;SDS011;70785;52.570;5.638;2024-02-28T12:58:01;23.10;;;14.18;;
81320;SDS011;70785;52.570;5.638;2024-02-28T13:00:30;23.65;;;14.25;;
81320;SDS011;70785;52.570;5.638;2024-02-28T13:02:56;21.23;;;14.10;;
81320;SDS011;70785;52.570;5.638;2024-02-28T13:05:22;19.75;;;13.20;;
81320;SDS011;70785;52.570;5.638;2024-02-28T13:07:48;21.40;;;13.40;;
81320;SDS011;70785;52.570;5.638;2024-02-28T13:10:14;17.23;;;12.20;;
81320;SDS011;70785;52.570;5.638;2024-02-28T13:12:40;18.73;;;11.85;;
81320;SDS011;70785;52.570;5.638;2024-02-28T13:15:07;19.50;;;12.25;;
81320;SDS011;70785;52.570;5.638;2024-02-28T13:17:33;14.55;;;9.65;;
81320;SDS011;70785;52.570;5.638;2024-02-28T13:19:59;19.10;;;9.68;;
81320;SDS011;70785;52.570;5.638;2024-02-28T13:22:26;15.90;;;10.18;;
81320;SDS011;70785;52.570;5.638;2024-02-28T13:24:52;17.85;;;10.05;;
81320;SDS011;70785;52.570;5.638;2024-02-28T13:27:18;15.10;;;9.75;;
81320;SDS011;70785;52.570;5.638;2024-02-28T13:29:44;19.00;;;10.32;;
81320;SDS011;70785;52.570;5.638;2024-02-28T13:32:10;14.85;;;9.85;;
81320;SDS011;70785;52.570;5.638;2024-02-28T13:34:36;22.25;;;12.48;;
81320;SDS011;70785;52.570;5.638;2024-02-28T13:37:04;17.67;;;11.57;;
81320;SDS011;70785;52.570;5.638;2024-02-28T13:39:30;17.95;;;11.18;;
81320;SDS011;70785;52.570;5.638;2024-02-28T13:41:58;20.05;;;12.68;;
81320;SDS011;70785;52.570;5.638;2024-02-28T13:44:24;26.13;;;14.60;;
81320;SDS011;70785;52.570;5.638;2024-02-28T13:46:51;22.98;;;14.45;;
81320;SDS011;70785;52.570;5.638;2024-02-28T13:49:18;27.08;;;15.20;;
81320;SDS011;70785;52.570;5.638;2024-02-28T13:51:45;25.23;;;14.88;;
81320;SDS011;70785;52.570;5.638;2024-02-28T13:54:13;26.27;;;14.57;;
81320;SDS011;70785;52.570;5.638;2024-02-28T13:56:39;27.48;;;15.27;;
81320;SDS011;70785;52.570;5.638;2024-02-28T13:59:05;25.52;;;14.32;;
81320;SDS011;70785;52.570;5.638;2024-02-28T14:01:31;24.48;;;15.13;;
81320;SDS011;70785;52.570;5.638;2024-02-28T14:03:58;27.45;;;15.38;;
81320;SDS011;70785;52.570;5.638;2024-02-28T14:06:24;26.05;;;14.85;;
81320;SDS011;70785;52.570;5.638;2024-02-28T14:08:50;24.00;;;13.85;;
81320;SDS011;70785;52.570;5.638;2024-02-28T14:11:19;27.38;;;14.18;;
81320;SDS011;70785;52.570;5.638;2024-02-28T14:13:46;23.58;;;13.48;;
81320;SDS011;70785;52.570;5.638;2024-02-28T14:16:12;24.48;;;14.02;;
81320;SDS011;70785;52.570;5.638;2024-02-28T14:18:38;21.25;;;13.00;;